Lake View, NY (14085)

3:50 AM EDT on April 26, 2018 (GMT -0400)
Hamburg Airport 4G2 | | Change Station

Elev 751 ft 42.70 °N, 78.91 °W | Updated 10 minutes ago

Overcast
Overcast
36.8 °F
Feels Like 30 °F
N
9.0
Wind Variable Wind from SW
Gusts 10.0 mph

Today
High -- | Low -- °F
--% Chance of Precip.
Yesterday
High -- | Low -- °F
Precip. -- in
Pressure 29.78 in
Visibility 10.0 miles
Clouds Overcast 800 ft
Windchill 30 °F
Dew Point 35 °F
Humidity 94%
Rainfall 0.00 in
Snow Depth Not available.
6:17 AM 8:10 PM
Waxing Gibbous, 85% visible
SPECI KBUF 260719Z 24009KT 10SM OVC008 03/02 A2978 RMK AO2 RAB0657E18 CIG 006V012 P0000 T00330022
Pressure 29.78 in
Visibility 10.0 miles
Clouds Overcast 800 ft
Windchill 30 °F
Dew Point 35 °F
Humidity 94%
Rainfall 0.00 in
Snow Depth Not available.
6:17 AM 8:10 PM
Waxing Gibbous, 85% visible
SPECI KBUF 260719Z 24009KT 10SM OVC008 03/02 A2978 RMK AO2 RAB0657E18 CIG 006V012 P0000 T00330022

Get Severe Weather Alerts

Thanks for signing up!

Be on the lookout for a verification email in your inbox.

You'll start receiving the daily forecast at 6 AM.

×

10-Day Weather Forecast

Almanac

Astronomy

Apr. 26, 2018 Rise Set
Actual Time
Civil Twilight
Nautical Twilight
Astronomical Twilight
Moon
Length of Visible Light
Length of Day
Tomorrow will be .
, % of the Moon is Illuminated

Today's Extremes

State Highs State Lows

Community

WunderPhotos

Category 6

Welcome to Category 6. This is the collective home for Weather Underground's featured writeups by Dr. Jeff Masters (right), Bob Henson (left), Chris Burt, and other regular contributors.

Nearby

Air Quality

  Air Quality AQ Index Pollutant
Not available.

Snow Depth

Station Depth Elevation

Earthquake Activity

City Distance Mag. Time & Date
Minimum magnitude displayed is 2.5.

Coastal Water Temperatures

Place Temperature

Stations

Nearby Weather Stations

Station Location Temp. Windchill Dew Point Humidity Wind Precip. Elev Updated Type
                   

Watches & Warnings

There are currently no watches in effect.